Banks, Oregon
Current Conditions -  °F | °C
As of 3:53 PM on Sunday 23 Nov 2014 (Local Time) from KHIO Reporting Station
Haze Haze  
Wind Chill: 47°   Ceiling: 3800
Heat Index: 49°   Visibility: 5mi
Dew Point: 48°   Wind: 6mph
Humidity: 97%   Direction: 50°NE
Pressure: 30.26"   Gusts: NA
Location:  45.62°N, 123.11°W
Report Text: KHIO 232353Z 05005KT 5SM BR BKN038 BKN070 09/09 A3026 RMK AO2 RAE17 SLP248 P0001 60053 T00940089 10167 20089 50009
Loading
Personal Weather Stations






























Interactive Weather Map New forecast layout! Learn more

10-Day Weather Forecast

Advertisements
Track Severe Weather on mobile